Olema, CA (94950)

11:25 AM PDT on September 23, 2014 (GMT -0700)
Mount Barnabe | Change Station
CLOSE
Current Station
Personal Weather Station
Location: Lagunitas, CA
Elevation: 1004 ft
Nearby Weather Stations

Elev 1004 ft 38.03 °N, 122.71 °W | Updated 3 minutes ago

Clear
Clear
68.4 °F
Feels Like 68.4 °F
N
0.0
Wind Variable Wind from SE
Gusts 4.0 mph

Today
High -- | Low -- °F
--% Chance of Precip.
Yesterday
High -- | Low -- °F
Precip. -- in
6:59 AM 7:06 PM
Waning Crescent, 0% visible
Pressure 30.02 in
Visibility 10.0 miles
Clouds Clear
Dew Point 62 °F
Humidity 81%
Rainfall 0.00 in
Snow Depth 0 in , 0 in , 0 in
UV 6 out of 12
Pollen 3.80 out of 12
Air Quality Not available.
Flu Activity Not available.
METAR KO69 231815Z AUTO 27006KT 10SM CLR 22/15 A3002 RMK AO1

More Conditions Fewer Conditions

Pressure 30.02 in
Visibility 10.0 miles
Clouds Clear
Dew Point 62 °F
Humidity 81%
Rainfall 0.00 in
Snow Depth 0 in , 0 in , 0 in
UV 6 out of 12
Pollen 3.80 out of 12
Air Quality Not available.
Flu Activity Not available.
METAR KO69 231815Z AUTO 27006KT 10SM CLR 22/15 A3002 RMK AO1

More Conditions Fewer Conditions

10-Day Weather Forecast

Almanac

Astronomy

Sep. 23, 2014 Rise Set
Actual Time 6:59 AM PDT 7:06 PM PDT
Civil Twilight 6:33 AM PDT 7:32 PM PDT
Nautical Twilight 6:02 AM PDT 8:03 PM PDT
Astronomical Twilight 5:31 AM PDT 8:34 PM PDT
Moon 6:29 AM PDT 6:48 PM PDT
Length of Visible Light 12h 59m
Length of Day
12h 06m
Tomorrow will be 2m 26s shorter.
Waning Crescent, 0% of the Moon is Illuminated
Today
Waning Crescent
Sep 24
New
Oct 1
First Quarter
Oct 8
Full
Oct 15
Last Quarter

Today's Extremes

State Highs State Lows

Community

WunderPhotos

Upload Photos

1,755,771 photos uploaded!

Nearby

Snow Depth

Station Depth Elevation
Tahoe City Cross 0 in 6750 ft
Spratt Creek 0 in 6200 ft
Monitor Pass 0 in 8350 ft
Rubicon #2 0 in 7500 ft
Leavitt Meadows 0 in 7200 ft

Earthquake Activity

City Distance Mag. Time & Date
Yountville, California 29 miles 2.6 1:17 PM PDT
2014-09-21
Minimum magnitude displayed is 2.5.

Coastal Water Temperatures

Place Temperature
Point Reyes, CA 64.0 °F
San Francisco, CA 66.0 °F
Richmond, CA 68.0 °F

Nearby Weather Stations